Time;durP1;ratioP1;P1;durP2;ratioP2;P2;SDS_P1;SDS_P2;PMS_P1;PMS_P2;Temp;Humidity;BMP_temperature;BMP_pressure;BME280_temperature;BME280_humidity;BME280_pressure;Samples;Min_cycle;Max_cycle;Signal;HPM_P1;HPM_P2
2023/04/13 00:01:01;;;;;;;;;;;14.70;80.10;;;;;;4994588;28;19913;-89
2023/04/13 00:03:40;;;;;;;;;;;14.70;80.10;;;;;;4994208;28;20254;-89
2023/04/13 00:06:09;;;;;;;;;;;14.60;79.90;;;;;;4993781;28;19967;-91
2023/04/13 00:08:35;;;;;;;;;;;14.60;79.90;;;;;;4996580;28;19924;-89
2023/04/13 00:11:17;;;;;;;;;;;14.60;79.90;;;;;;4994087;28;19922;-89
2023/04/13 00:13:49;;;;;;;;;;;14.60;79.80;;;;;;5017301;28;19933;-89
2023/04/13 00:16:30;;;;;;;;;;;14.60;79.60;;;;;;5018405;28;19910;-89
2023/04/13 00:19:05;;;;;;;;;;;14.60;79.60;;;;;;5035839;28;19909;-89
2023/04/13 00:22:36;;;;;;;;;;;14.60;79.60;;;;;;4994972;28;19968;-89
2023/04/13 00:24:45;;;;;;;;;;;14.60;79.50;;;;;;4987389;28;20163;-89
2023/04/13 00:27:37;;;;;;;;;;;14.60;79.40;;;;;;4994828;28;19906;-89
2023/04/13 00:30:28;;;;;;;;;;;14.50;79.30;;;;;;4994705;28;20021;-89
2023/04/13 00:33:06;;;;;;;;;;;14.50;79.20;;;;;;4995007;28;19916;-89
2023/04/13 00:35:35;;;;;;;;;;;14.50;79.10;;;;;;4995432;28;19913;-89
2023/04/13 00:38:19;;;;;;;;;;;14.50;78.90;;;;;;4994288;28;19913;-89
2023/04/13 00:43:41;;;;;;;;;;;14.50;78.90;;;;;;4992268;28;20019;-89
2023/04/13 00:46:15;;;;;;;;;;;14.50;78.80;;;;;;4995612;28;19932;-90
2023/04/13 00:49:06;;;;;;;;;;;14.50;78.60;;;;;;4995800;28;19910;-91
2023/04/13 00:51:34;;;;;;;;;;;14.50;78.60;;;;;;4997874;28;20245;-89
2023/04/13 00:54:03;;;;;;;;;;;14.50;78.40;;;;;;5018661;28;20007;-90
2023/04/13 00:59:54;;;;;;;;;;;14.50;78.30;;;;;;5035826;28;19917;-89
2023/04/13 01:02:40;;;;;;;;;;;14.50;78.20;;;;;;5017197;28;20282;-89
2023/04/13 01:05:18;;;;;;;;;;;14.50;78.20;;;;;;5012162;28;19987;-90
2023/04/13 01:08:07;;;;;;;;;;;14.40;78.00;;;;;;5018688;28;20290;-89
2023/04/13 01:10:49;;;;;;;;;;;14.40;78.10;;;;;;5016387;28;19992;-89
2023/04/13 01:13:57;;;;;;;;;;;14.40;78.10;;;;;;5031292;28;19921;-89
2023/04/13 01:19:16;;;;;;;;;;;14.40;77.90;;;;;;4971833;28;19941;-88
2023/04/13 01:22:19;;;;;;;;;;;14.40;78.00;;;;;;4954699;28;19923;-90
2023/04/13 01:25:06;;;;;;;;;;;14.40;77.80;;;;;;4955411;28;19914;-89
2023/04/13 01:27:50;;;;;;;;;;;14.40;77.80;;;;;;4995206;28;19992;-89
2023/04/13 01:30:27;;;;;;;;;;;14.40;77.80;;;;;;5028913;28;19913;-89
2023/04/13 01:32:57;;;;;;;;;;;14.40;77.80;;;;;;5033296;28;19948;-89
2023/04/13 01:35:35;;;;;;;;;;;14.40;77.80;;;;;;5032854;28;20112;-89
2023/04/13 01:38:13;;;;;;;;;;;14.30;77.60;;;;;;5033141;28;19917;-89
2023/04/13 01:46:45;;;;;;;;;;;14.30;77.40;;;;;;5034946;28;19975;-89
2023/04/13 01:49:42;;;;;;;;;;;14.30;77.40;;;;;;5018430;28;19958;-88
2023/04/13 01:52:29;;;;;;;;;;;14.30;77.30;;;;;;5031751;28;19936;-88
2023/04/13 01:58:05;;;;;;;;;;;14.30;77.40;;;;;;5035234;28;19948;-88
2023/04/13 02:00:42;;;;;;;;;;;14.30;77.40;;;;;;5018245;28;19913;-88
2023/04/13 02:03:23;;;;;;;;;;;14.30;77.40;;;;;;5017749;28;19971;-89
2023/04/13 02:05:55;;;;;;;;;;;14.30;77.30;;;;;;5012631;28;19972;-89
2023/04/13 02:08:44;;;;;;;;;;;14.30;77.90;;;;;;5012108;28;19914;-89
2023/04/13 02:11:12;;;;;;;;;;;14.30;77.30;;;;;;4993678;28;19917;-89
2023/04/13 02:13:59;;;;;;;;;;;14.20;77.10;;;;;;5011447;28;19913;-89
2023/04/13 02:16:31;;;;;;;;;;;14.20;77.10;;;;;;4994823;28;20293;-91
2023/04/13 02:19:18;;;;;;;;;;;14.20;77.10;;;;;;5011415;28;20293;-89
2023/04/13 02:24:39;;;;;;;;;;;14.20;76.90;;;;;;5012985;28;19969;-88
2023/04/13 02:27:11;;;;;;;;;;;14.20;76.90;;;;;;5012963;28;20004;-88
2023/04/13 02:30:01;;;;;;;;;;;14.20;76.80;;;;;;5008637;28;19928;-88
2023/04/13 02:36:16;;;;;;;;;;;14.20;76.80;;;;;;4977283;28;20278;-88
2023/04/13 02:38:56;;;;;;;;;;;14.20;76.70;;;;;;4977784;28;20004;-88
2023/04/13 02:41:41;;;;;;;;;;;14.10;77.00;;;;;;4962191;28;19933;-88
2023/04/13 02:44:07;;;;;;;;;;;14.10;76.70;;;;;;4977400;28;19948;-88
2023/04/13 02:46:35;;;;;;;;;;;14.10;76.60;;;;;;4958562;29;19962;-88
2023/04/13 02:49:09;;;;;;;;;;;14.10;76.60;;;;;;4972738;28;19996;-88
2023/04/13 02:51:47;;;;;;;;;;;14.10;76.60;;;;;;4962073;28;19950;-89
2023/04/13 02:54:13;;;;;;;;;;;14.10;76.60;;;;;;4977412;28;20223;-89
2023/04/13 02:56:54;;;;;;;;;;;14.10;76.60;;;;;;4976051;28;19977;-89
2023/04/13 02:59:58;;;;;;;;;;;14.10;76.50;;;;;;4960237;28;19980;-89
2023/04/13 03:02:28;;;;;;;;;;;14.10;76.50;;;;;;4996995;28;19949;-89
2023/04/13 03:08:36;;;;;;;;;;;14.10;76.40;;;;;;4996074;28;20012;-89
2023/04/13 03:11:02;;;;;;;;;;;14.10;76.40;;;;;;4959691;28;19961;-89
2023/04/13 03:13:40;;;;;;;;;;;14.00;76.30;;;;;;4976672;28;19914;-89
2023/04/13 03:16:06;;;;;;;;;;;14.00;76.30;;;;;;4961506;28;19910;-89
2023/04/13 03:18:31;;;;;;;;;;;14.00;76.20;;;;;;4960798;28;19917;-89
2023/04/13 03:24:17;;;;;;;;;;;14.00;76.20;;;;;;4976257;28;20322;-89
2023/04/13 03:26:43;;;;;;;;;;;14.00;76.20;;;;;;5019386;28;19909;-88
2023/04/13 03:29:11;;;;;;;;;;;14.00;76.20;;;;;;5036282;28;19914;-88
2023/04/13 03:31:42;;;;;;;;;;;14.00;76.30;;;;;;4995321;28;19914;-89
2023/04/13 03:34:08;;;;;;;;;;;14.00;76.30;;;;;;4994789;28;19961;-90
2023/04/13 03:36:52;;;;;;;;;;;14.00;76.30;;;;;;4995329;28;20023;-88
2023/04/13 03:39:17;;;;;;;;;;;14.00;76.30;;;;;;4980125;28;19910;-88
2023/04/13 03:41:52;;;;;;;;;;;14.00;76.60;;;;;;4938234;29;20362;-88
2023/04/13 03:44:32;;;;;;;;;;;13.90;76.30;;;;;;4937109;29;19950;-88
2023/04/13 03:47:16;;;;;;;;;;;13.90;76.20;;;;;;4936448;29;19911;-88
2023/04/13 03:50:03;;;;;;;;;;;13.90;76.20;;;;;;4936962;29;20312;-88
2023/04/13 03:52:37;;;;;;;;;;;13.90;76.20;;;;;;4936754;29;19933;-90
2023/04/13 03:55:07;;;;;;;;;;;13.90;76.10;;;;;;4935673;29;20017;-89
2023/04/13 03:57:35;;;;;;;;;;;13.90;76.20;;;;;;4935288;29;20301;-90
2023/04/13 04:00:01;;;;;;;;;;;13.90;76.20;;;;;;4935784;29;19990;-89
2023/04/13 04:02:29;;;;;;;;;;;13.90;76.20;;;;;;4942541;29;20133;-88
2023/04/13 04:04:58;;;;;;;;;;;13.90;76.20;;;;;;4953548;29;20099;-88
2023/04/13 04:07:24;;;;;;;;;;;13.90;76.10;;;;;;4955604;28;20196;-88
2023/04/13 04:10:40;;;;;;;;;;;13.90;76.10;;;;;;4956299;28;19918;-88
2023/04/13 04:13:02;;;;;;;;;;;13.80;76.00;;;;;;5001625;28;19909;-88
2023/04/13 04:16:12;;;;;;;;;;;13.80;76.10;;;;;;5032601;28;20245;-89
2023/04/13 04:18:53;;;;;;;;;;;13.80;76.10;;;;;;5016234;28;20075;-88
2023/04/13 04:21:33;;;;;;;;;;;13.80;76.10;;;;;;5033972;28;20067;-88
2023/04/13 04:24:19;;;;;;;;;;;13.80;76.00;;;;;;5015810;28;19919;-88
2023/04/13 04:26:53;;;;;;;;;;;13.80;76.00;;;;;;5032868;28;19935;-89
2023/04/13 04:29:47;;;;;;;;;;;13.80;76.10;;;;;;5014126;28;20482;-89
2023/04/13 04:32:22;;;;;;;;;;;13.80;76.00;;;;;;5032266;28;20238;-89
2023/04/13 04:34:57;;;;;;;;;;;13.80;76.10;;;;;;5016777;28;19981;-89
2023/04/13 04:37:24;;;;;;;;;;;13.80;76.10;;;;;;5015998;28;19920;-89
2023/04/13 04:39:50;;;;;;;;;;;13.80;76.70;;;;;;5032137;28;20181;-89
2023/04/13 04:42:22;;;;;;;;;;;13.80;76.00;;;;;;5013336;28;20210;-88
2023/04/13 04:44:48;;;;;;;;;;;13.80;76.00;;;;;;5020639;28;20050;-89
2023/04/13 04:47:33;;;;;;;;;;;;;;;;;;;;;
2023/04/13 04:52:50;;;;;;;;;;;13.80;76.00;;;;;;5031728;28;19920;-88
2023/04/13 04:55:24;;;;;;;;;;;13.80;76.00;;;;;;5015585;28;19951;-88
2023/04/13 05:01:07;;;;;;;;;;;13.80;76.00;;;;;;5033192;28;19971;-88
2023/04/13 05:03:38;;;;;;;;;;;13.70;76.50;;;;;;5012845;28;20250;-88
2023/04/13 05:06:07;;;;;;;;;;;13.70;75.90;;;;;;5013045;28;19967;-88
2023/04/13 05:08:36;;;;;;;;;;;13.70;75.90;;;;;;5030067;28;19913;-89
2023/04/13 05:11:16;;;;;;;;;;;13.70;75.80;;;;;;5030380;28;19915;-88
2023/04/13 05:13:42;;;;;;;;;;;13.70;76.40;;;;;;5013238;28;20090;-88
2023/04/13 05:16:22;;;;;;;;;;;13.70;75.80;;;;;;5013008;28;19909;-88
2023/04/13 05:18:51;;;;;;;;;;;13.70;75.80;;;;;;5011626;28;19913;-88
2023/04/13 05:21:19;;;;;;;;;;;13.70;75.80;;;;;;5012083;28;19913;-89
2023/04/13 05:24:06;;;;;;;;;;;13.70;75.80;;;;;;5027876;28;19909;-88
2023/04/13 05:26:46;;;;;;;;;;;13.70;75.90;;;;;;5030029;28;19982;-89
2023/04/13 05:29:32;;;;;;;;;;;13.70;75.80;;;;;;5012210;28;19909;-88
2023/04/13 05:32:01;;;;;;;;;;;13.70;75.80;;;;;;5029316;28;19909;-88
2023/04/13 05:34:27;;;;;;;;;;;13.70;75.80;;;;;;5012840;28;19913;-88
2023/04/13 05:39:59;;;;;;;;;;;13.70;75.70;;;;;;4987935;28;19910;-88
2023/04/13 05:42:25;;;;;;;;;;;13.70;75.70;;;;;;4989169;28;20004;-88
2023/04/13 05:44:57;;;;;;;;;;;13.70;75.60;;;;;;4972241;28;19987;-88
2023/04/13 05:47:37;;;;;;;;;;;13.70;75.60;;;;;;4981081;28;19909;-88
2023/04/13 05:50:02;;;;;;;;;;;13.70;75.50;;;;;;5029297;28;19971;-89
2023/04/13 05:58:40;;;;;;;;;;;13.80;75.60;;;;;;4985663;28;20188;-88
2023/04/13 06:01:28;;;;;;;;;;;13.80;75.30;;;;;;5006259;28;20161;-88
2023/04/13 06:03:54;;;;;;;;;;;14.00;75.00;;;;;;5026922;28;19920;-88
2023/04/13 06:06:20;;;;;;;;;;;14.10;74.50;;;;;;5008976;28;20431;-88
2023/04/13 06:08:48;;;;;;;;;;;14.10;74.10;;;;;;5012265;28;19916;-88
2023/04/13 06:11:17;;;;;;;;;;;14.30;73.90;;;;;;5013585;28;19909;-88
2023/04/13 06:13:45;;;;;;;;;;;14.60;75.30;;;;;;5013336;28;20249;-87
2023/04/13 06:16:14;;;;;;;;;;;14.80;74.60;;;;;;5028301;28;19917;-88
2023/04/13 06:18:40;;;;;;;;;;;14.90;74.40;;;;;;5012429;28;19920;-88
2023/04/13 06:21:06;;;;;;;;;;;14.90;74.20;;;;;;5012307;28;19909;-88
2023/04/13 06:23:31;;;;;;;;;;;14.90;74.20;;;;;;5012278;28;20008;-88
2023/04/13 06:26:16;;;;;;;;;;;14.90;74.30;;;;;;5011610;28;19916;-88
2023/04/13 06:29:04;;;;;;;;;;;15.30;72.80;;;;;;5012879;28;19909;-88
2023/04/13 06:32:15;;;;;;;;;;;15.20;72.90;;;;;;5030883;28;19928;-88
2023/04/13 06:34:27;;;;;;;;;;;15.40;73.50;;;;;;5019295;28;20012;-88
2023/04/13 06:36:56;;;;;;;;;;;16.20;70.70;;;;;;5011986;28;19975;-88
2023/04/13 06:39:21;;;;;;;;;;;16.60;67.50;;;;;;5015297;28;19920;-88
2023/04/13 06:41:50;;;;;;;;;;;16.80;66.30;;;;;;5016104;28;19913;-88
2023/04/13 06:47:04;;;;;;;;;;;17.70;61.80;;;;;;5031664;28;19956;-89
2023/04/13 06:49:36;;;;;;;;;;;17.40;61.40;;;;;;5030766;28;19945;-88
2023/04/13 06:52:01;;;;;;;;;;;17.20;61.30;;;;;;5013290;28;19983;-88
2023/04/13 06:54:27;;;;;;;;;;;17.30;62.00;;;;;;5013967;28;19925;-89
2023/04/13 06:56:52;;;;;;;;;;;16.90;62.50;;;;;;5030369;28;19935;-89
2023/04/13 06:59:21;;;;;;;;;;;16.70;63.40;;;;;;5013829;28;19922;-89
2023/04/13 07:01:50;;;;;;;;;;;16.80;63.50;;;;;;5012593;28;19909;-90
2023/04/13 07:04:39;;;;;;;;;;;16.80;63.60;;;;;;5012238;28;20061;-89
2023/04/13 07:07:13;;;;;;;;;;;16.70;64.20;;;;;;5030457;28;19936;-88
2023/04/13 07:09:39;;;;;;;;;;;17.10;62.90;;;;;;5029706;28;19970;-89
2023/04/13 07:12:32;;;;;;;;;;;17.20;62.30;;;;;;5008640;28;19909;-88
2023/04/13 07:15:08;;;;;;;;;;;17.90;60.90;;;;;;5010922;28;19928;-89
2023/04/13 07:17:33;;;;;;;;;;;18.20;59.10;;;;;;5012406;28;19913;-89
2023/04/13 07:20:08;;;;;;;;;;;18.20;58.50;;;;;;5028926;28;19975;-88
2023/04/13 07:22:34;;;;;;;;;;;18.10;58.30;;;;;;5027340;28;19923;-88
2023/04/13 07:25:02;;;;;;;;;;;18.00;58.10;;;;;;5026483;28;19913;-89
2023/04/13 07:27:28;;;;;;;;;;;18.00;58.40;;;;;;5027489;28;19909;-89
2023/04/13 07:29:56;;;;;;;;;;;18.20;58.10;;;;;;5011704;28;19909;-89
2023/04/13 07:32:34;;;;;;;;;;;18.00;58.00;;;;;;5012689;28;20038;-89
2023/04/13 07:35:00;;;;;;;;;;;18.20;58.40;;;;;;5012379;28;19947;-89
2023/04/13 07:38:04;;;;;;;;;;;18.80;57.50;;;;;;5029263;28;19917;-88
2023/04/13 07:40:41;;;;;;;;;;;18.60;56.80;;;;;;4952279;28;19910;-88
2023/04/13 07:43:07;;;;;;;;;;;18.90;56.90;;;;;;5007044;28;20255;-88
2023/04/13 07:45:38;;;;;;;;;;;18.90;56.20;;;;;;5031005;28;19917;-89
2023/04/13 07:48:05;;;;;;;;;;;19.10;56.10;;;;;;5030906;28;20269;-89
2023/04/13 07:50:30;;;;;;;;;;;19.20;55.80;;;;;;5012792;28;20059;-89
2023/04/13 07:52:56;;;;;;;;;;;19.30;55.50;;;;;;5013873;28;20155;-89
2023/04/13 07:55:21;;;;;;;;;;;20.10;54.70;;;;;;5012366;28;19990;-89
2023/04/13 07:57:47;;;;;;;;;;;20.00;53.90;;;;;;5013848;28;19959;-89
2023/04/13 08:00:13;;;;;;;;;;;19.80;54.20;;;;;;5012194;28;19913;-89
2023/04/13 08:02:42;;;;;;;;;;;19.70;54.10;;;;;;5009813;28;19910;-89
2023/04/13 08:05:11;;;;;;;;;;;19.10;54.60;;;;;;5009380;28;20008;-88
2023/04/13 08:07:49;;;;;;;;;;;18.60;55.50;;;;;;5009887;28;20116;-89
2023/04/13 08:10:23;;;;;;;;;;;18.10;56.30;;;;;;5028743;28;20160;-89
2023/04/13 08:13:04;;;;;;;;;;;17.80;57.20;;;;;;5010929;28;19960;-89
2023/04/13 08:15:30;;;;;;;;;;;17.50;58.00;;;;;;5009883;28;19913;-90
2023/04/13 08:18:14;;;;;;;;;;;17.20;58.60;;;;;;5010550;28;19917;-89
2023/04/13 08:20:40;;;;;;;;;;;17.10;59.20;;;;;;5029141;28;19913;-89
2023/04/13 08:23:09;;;;;;;;;;;16.90;59.80;;;;;;5027708;28;19913;-89
2023/04/13 08:25:38;;;;;;;;;;;16.80;60.50;;;;;;5009514;28;19917;-89
2023/04/13 08:28:09;;;;;;;;;;;16.80;61.10;;;;;;5025984;28;19948;-89
2023/04/13 08:30:44;;;;;;;;;;;16.70;61.50;;;;;;5023170;28;20146;-89
2023/04/13 08:33:13;;;;;;;;;;;16.70;62.00;;;;;;5008672;28;20150;-89
2023/04/13 08:35:39;;;;;;;;;;;16.60;62.50;;;;;;5009842;28;19969;-89
2023/04/13 08:38:12;;;;;;;;;;;16.60;63.00;;;;;;5011241;28;19909;-89
2023/04/13 08:40:47;;;;;;;;;;;16.50;63.60;;;;;;5009375;28;19909;-89
2023/04/13 08:43:13;;;;;;;;;;;16.50;64.10;;;;;;5011055;28;19946;-88
2023/04/13 08:45:42;;;;;;;;;;;16.40;64.50;;;;;;5013130;28;19917;-89
2023/04/13 08:48:12;;;;;;;;;;;16.40;65.00;;;;;;5011513;28;19917;-89
2023/04/13 08:50:37;;;;;;;;;;;16.30;65.30;;;;;;5010176;28;19967;-89
2023/04/13 08:53:06;;;;;;;;;;;16.30;65.60;;;;;;5026211;28;19910;-88
2023/04/13 08:55:31;;;;;;;;;;;16.20;66.00;;;;;;5011031;28;19913;-90
2023/04/13 08:58:04;;;;;;;;;;;16.20;66.40;;;;;;5011804;28;19928;-89
2023/04/13 09:00:37;;;;;;;;;;;16.10;66.80;;;;;;5009169;28;19978;-89
2023/04/13 09:03:05;;;;;;;;;;;16.10;67.10;;;;;;5010302;28;19920;-88
2023/04/13 09:05:36;;;;;;;;;;;16.10;67.40;;;;;;5010483;28;20145;-88
2023/04/13 09:08:15;;;;;;;;;;;16.00;67.70;;;;;;5011164;28;19909;-89
2023/04/13 09:10:41;;;;;;;;;;;16.00;68.10;;;;;;5009796;28;19909;-89
2023/04/13 09:13:09;;;;;;;;;;;16.00;68.50;;;;;;5009706;28;20202;-89
2023/04/13 09:15:35;;;;;;;;;;;15.90;68.60;;;;;;5010582;28;20254;-89
2023/04/13 09:18:06;;;;;;;;;;;15.80;68.80;;;;;;5028717;28;19909;-89
2023/04/13 09:20:31;;;;;;;;;;;15.80;69.00;;;;;;5010717;28;19909;-89
2023/04/13 09:22:57;;;;;;;;;;;15.70;69.30;;;;;;5024248;28;19983;-89
2023/04/13 09:25:34;;;;;;;;;;;15.70;69.50;;;;;;5007686;28;19917;-89
2023/04/13 09:28:00;;;;;;;;;;;15.70;69.60;;;;;;5008531;28;20366;-90
2023/04/13 09:30:41;;;;;;;;;;;15.70;69.60;;;;;;5008668;28;19909;-89
2023/04/13 09:33:09;;;;;;;;;;;15.60;69.70;;;;;;5007918;28;19909;-89
2023/04/13 09:35:35;;;;;;;;;;;15.60;69.60;;;;;;5008195;28;20183;-89
2023/04/13 09:38:01;;;;;;;;;;;15.70;69.60;;;;;;5008468;28;20333;-89
2023/04/13 09:40:46;;;;;;;;;;;15.70;69.60;;;;;;5007892;28;19909;-89
2023/04/13 09:43:11;;;;;;;;;;;15.70;69.50;;;;;;5007804;28;20282;-89
2023/04/13 09:45:38;;;;;;;;;;;15.80;69.30;;;;;;5022875;28;20051;-89
2023/04/13 09:48:05;;;;;;;;;;;15.80;69.20;;;;;;5004581;28;19909;-88
2023/04/13 09:50:40;;;;;;;;;;;16.00;68.90;;;;;;5005421;28;20196;-88
2023/04/13 09:53:09;;;;;;;;;;;16.30;67.60;;;;;;5007688;28;19979;-88
2023/04/13 09:55:39;;;;;;;;;;;16.50;66.60;;;;;;5008918;28;19909;-88
2023/04/13 09:58:23;;;;;;;;;;;16.90;65.00;;;;;;5004166;28;19917;-89
2023/04/13 10:00:50;;;;;;;;;;;17.50;62.70;;;;;;5021709;28;20080;-88
2023/04/13 10:03:22;;;;;;;;;;;18.70;59.40;;;;;;5023816;28;19949;-88
2023/04/13 10:05:48;;;;;;;;;;;18.70;57.80;;;;;;5007647;28;19909;-88
2023/04/13 10:08:35;;;;;;;;;;;18.40;57.80;;;;;;5026103;28;19920;-88
2023/04/13 10:11:04;;;;;;;;;;;18.20;58.20;;;;;;5007145;28;19914;-88
2023/04/13 10:13:36;;;;;;;;;;;17.80;58.70;;;;;;5024691;28;19913;-89
2023/04/13 10:16:05;;;;;;;;;;;17.60;59.30;;;;;;5006908;28;20270;-88
2023/04/13 10:18:49;;;;;;;;;;;17.30;59.70;;;;;;5007539;28;19924;-88
2023/04/13 10:21:17;;;;;;;;;;;17.20;60.60;;;;;;5007571;28;20099;-88
2023/04/13 10:23:46;;;;;;;;;;;17.00;61.50;;;;;;5023315;28;19977;-88
2023/04/13 10:26:14;;;;;;;;;;;16.80;62.30;;;;;;5009822;28;19909;-88
2023/04/13 10:28:55;;;;;;;;;;;16.70;62.90;;;;;;5026469;28;20077;-88
2023/04/13 10:31:37;;;;;;;;;;;16.60;63.60;;;;;;5006969;28;20070;-88
2023/04/13 10:34:04;;;;;;;;;;;16.50;64.40;;;;;;5006614;28;20149;-88
2023/04/13 10:36:45;;;;;;;;;;;16.40;65.20;;;;;;5005477;28;19920;-88
2023/04/13 10:39:22;;;;;;;;;;;16.40;66.10;;;;;;5005153;28;20297;-88
2023/04/13 10:42:06;;;;;;;;;;;16.30;67.10;;;;;;5005820;28;20275;-88
2023/04/13 10:44:47;;;;;;;;;;;16.30;67.90;;;;;;5021430;28;20203;-88
2023/04/13 10:47:19;;;;;;;;;;;16.20;68.30;;;;;;5007453;28;20191;-88
2023/04/13 10:49:48;;;;;;;;;;;16.20;68.60;;;;;;5006949;28;19988;-89
2023/04/13 10:52:14;;;;;;;;;;;16.20;69.00;;;;;;5009187;28;20002;-89
2023/04/13 10:54:40;;;;;;;;;;;16.20;69.20;;;;;;5013902;28;20167;-88
2023/04/13 10:57:08;;;;;;;;;;;16.20;69.90;;;;;;5009386;28;19909;-89
2023/04/13 10:59:55;;;;;;;;;;;16.20;70.10;;;;;;5010015;28;19909;-88
2023/04/13 11:02:23;;;;;;;;;;;16.20;70.30;;;;;;5008679;28;19919;-88
2023/04/13 11:04:49;;;;;;;;;;;16.30;69.90;;;;;;5011027;28;19909;-88
2023/04/13 11:07:35;;;;;;;;;;;16.30;69.90;;;;;;5011531;28;20222;-89
2023/04/13 11:10:07;;;;;;;;;;;16.30;69.90;;;;;;5010851;28;19924;-88
2023/04/13 11:12:35;;;;;;;;;;;16.40;69.50;;;;;;5029995;28;20246;-88
2023/04/13 11:15:01;;;;;;;;;;;16.50;69.00;;;;;;5011477;28;19927;-89
2023/04/13 11:17:26;;;;;;;;;;;16.50;68.80;;;;;;5010133;28;19909;-89
2023/04/13 11:19:53;;;;;;;;;;;16.40;68.80;;;;;;5028753;28;19909;-89
2023/04/13 11:22:23;;;;;;;;;;;16.40;69.00;;;;;;5011593;28;20345;-89
2023/04/13 11:24:51;;;;;;;;;;;16.40;69.20;;;;;;5009531;28;19909;-89
2023/04/13 11:27:17;;;;;;;;;;;16.30;69.60;;;;;;5010024;28;20183;-89
2023/04/13 11:30:09;;;;;;;;;;;16.20;70.00;;;;;;5010508;28;19972;-89
2023/04/13 11:32:49;;;;;;;;;;;16.20;70.60;;;;;;5023547;28;19920;-89
2023/04/13 11:35:21;;;;;;;;;;;16.20;71.00;;;;;;5007519;28;20074;-89
2023/04/13 11:37:51;;;;;;;;;;;16.30;70.40;;;;;;5009424;28;19909;-89
2023/04/13 11:40:21;;;;;;;;;;;16.40;69.80;;;;;;5004440;28;19909;-89
2023/04/13 11:42:52;;;;;;;;;;;16.50;69.40;;;;;;5007633;28;19913;-89
2023/04/13 11:45:19;;;;;;;;;;;16.50;69.00;;;;;;5009526;28;20420;-89
2023/04/13 11:47:48;;;;;;;;;;;16.60;68.90;;;;;;5010790;28;19921;-89
2023/04/13 11:50:17;;;;;;;;;;;16.60;68.70;;;;;;5010289;28;19940;-89
2023/04/13 11:52:44;;;;;;;;;;;16.50;68.70;;;;;;5009611;28;19920;-89
2023/04/13 11:55:12;;;;;;;;;;;16.50;68.80;;;;;;5009394;28;20016;-89
2023/04/13 11:57:39;;;;;;;;;;;16.60;68.90;;;;;;5009286;28;20003;-89
2023/04/13 12:00:24;;;;;;;;;;;16.60;68.80;;;;;;5008828;28;20168;-89
2023/04/13 12:02:53;;;;;;;;;;;16.60;68.90;;;;;;5009029;28;20498;-89
2023/04/13 12:05:21;;;;;;;;;;;16.50;69.00;;;;;;5006580;28;19909;-90
2023/04/13 12:07:52;;;;;;;;;;;16.50;69.40;;;;;;5006554;28;20079;-90
2023/04/13 12:10:21;;;;;;;;;;;16.40;69.60;;;;;;5004708;28;20287;-89
2023/04/13 12:13:07;;;;;;;;;;;16.40;69.90;;;;;;5005256;28;19909;-89
2023/04/13 12:15:34;;;;;;;;;;;16.30;70.20;;;;;;5003761;28;20095;-89
2023/04/13 12:18:06;;;;;;;;;;;16.30;70.30;;;;;;5004155;28;20342;-89
2023/04/13 12:20:36;;;;;;;;;;;16.40;70.20;;;;;;5006258;28;19967;-89
2023/04/13 12:23:02;;;;;;;;;;;16.50;70.00;;;;;;5006875;28;20170;-89
2023/04/13 12:25:43;;;;;;;;;;;16.50;69.70;;;;;;5008031;28;19975;-89
2023/04/13 12:28:10;;;;;;;;;;;16.50;69.60;;;;;;5008761;28;19909;-89
2023/04/13 12:30:35;;;;;;;;;;;16.50;69.50;;;;;;5009698;28;20286;-89
2023/04/13 12:33:04;;;;;;;;;;;16.50;69.60;;;;;;5026960;28;19920;-89
2023/04/13 12:35:29;;;;;;;;;;;16.50;69.60;;;;;;5009394;28;19920;-89
2023/04/13 12:37:59;;;;;;;;;;;16.50;69.40;;;;;;5009147;28;19917;-89
2023/04/13 12:40:30;;;;;;;;;;;16.60;69.50;;;;;;5010477;28;19962;-89
2023/04/13 12:42:59;;;;;;;;;;;16.60;69.20;;;;;;5008731;28;19916;-89
2023/04/13 12:45:32;;;;;;;;;;;16.60;69.10;;;;;;5024352;28;20070;-90
2023/04/13 12:48:16;;;;;;;;;;;16.60;69.00;;;;;;5006716;28;19913;-89
2023/04/13 12:50:42;;;;;;;;;;;16.60;69.00;;;;;;5009269;28;19913;-89
2023/04/13 12:53:11;;;;;;;;;;;16.60;68.90;;;;;;5008037;28;19917;-89
2023/04/13 12:55:40;;;;;;;;;;;16.60;68.80;;;;;;5005861;28;19928;-89
2023/04/13 12:58:09;;;;;;;;;;;16.70;68.70;;;;;;5004399;28;19913;-88
2023/04/13 13:00:38;;;;;;;;;;;16.70;68.80;;;;;;5007178;28;20054;-88
2023/04/13 13:03:09;;;;;;;;;;;16.70;69.00;;;;;;5005133;28;20248;-89
2023/04/13 13:05:34;;;;;;;;;;;16.70;69.00;;;;;;5008282;28;19916;-89
2023/04/13 13:08:12;;;;;;;;;;;16.70;68.90;;;;;;5008244;28;20057;-88
2023/04/13 13:10:44;;;;;;;;;;;16.70;68.80;;;;;;5008194;28;19920;-89
2023/04/13 13:13:21;;;;;;;;;;;16.70;68.60;;;;;;5026285;28;20078;-89
2023/04/13 13:15:47;;;;;;;;;;;16.70;68.70;;;;;;5008381;28;19927;-89
2023/04/13 13:18:13;;;;;;;;;;;16.70;68.60;;;;;;5005154;28;19920;-89
2023/04/13 13:20:40;;;;;;;;;;;16.80;68.70;;;;;;5008032;28;19909;-89
2023/04/13 13:23:16;;;;;;;;;;;16.80;68.60;;;;;;5007434;28;19920;-89
2023/04/13 13:25:45;;;;;;;;;;;16.80;68.70;;;;;;5008526;28;20195;-89
2023/04/13 13:28:11;;;;;;;;;;;16.80;68.70;;;;;;5007208;28;19910;-89
2023/04/13 13:30:47;;;;;;;;;;;16.80;68.80;;;;;;5006138;28;20241;-90
2023/04/13 13:33:14;;;;;;;;;;;16.80;68.70;;;;;;5007161;28;19917;-89
2023/04/13 13:35:39;;;;;;;;;;;16.70;69.10;;;;;;5007474;28;19956;-89
2023/04/13 13:38:05;;;;;;;;;;;16.70;69.30;;;;;;5006737;28;19940;-89
2023/04/13 13:40:31;;;;;;;;;;;16.70;69.60;;;;;;5007154;28;20230;-89
2023/04/13 13:42:57;;;;;;;;;;;16.80;69.70;;;;;;5022648;28;20004;-89
2023/04/13 13:45:23;;;;;;;;;;;16.80;69.50;;;;;;5023446;28;20014;-89
2023/04/13 13:47:52;;;;;;;;;;;16.90;69.00;;;;;;5024362;28;19975;-90
2023/04/13 13:50:40;;;;;;;;;;;16.90;68.90;;;;;;5008677;28;20303;-90
2023/04/13 13:53:04;;;;;;;;;;;16.80;70.00;;;;;;5024851;28;19919;-89
2023/04/13 13:55:30;;;;;;;;;;;16.90;69.20;;;;;;5025355;28;19913;-89
2023/04/13 13:57:56;;;;;;;;;;;16.80;69.50;;;;;;5025494;28;20553;-90
2023/04/13 14:00:24;;;;;;;;;;;16.80;70.00;;;;;;5023987;28;20251;-91
2023/04/13 14:02:50;;;;;;;;;;;16.80;70.10;;;;;;5009047;28;19909;-90
2023/04/13 14:05:16;;;;;;;;;;;16.80;70.20;;;;;;5024587;28;19939;-91
2023/04/13 14:07:42;;;;;;;;;;;16.70;70.40;;;;;;5007295;28;19909;-91
2023/04/13 14:10:14;;;;;;;;;;;16.70;70.70;;;;;;5023453;28;20094;-91
2023/04/13 14:12:42;;;;;;;;;;;16.80;70.80;;;;;;5004721;28;20305;-90
2023/04/13 14:15:14;;;;;;;;;;;16.80;70.30;;;;;;5004702;28;19913;-91
2023/04/13 14:17:49;;;;;;;;;;;16.80;69.90;;;;;;5006675;28;19915;-90
2023/04/13 14:20:18;;;;;;;;;;;16.90;69.90;;;;;;5031252;28;19971;-90
2023/04/13 14:22:49;;;;;;;;;;;16.90;69.70;;;;;;5005767;28;19975;-90
2023/04/13 14:25:15;;;;;;;;;;;16.90;69.50;;;;;;5022152;28;19952;-92
2023/04/13 14:27:40;;;;;;;;;;;16.90;69.50;;;;;;5004409;28;19964;-92
2023/04/13 14:30:08;;;;;;;;;;;16.90;69.70;;;;;;5009314;28;20151;-91
2023/04/13 14:32:34;;;;;;;;;;;16.80;69.60;;;;;;5009024;28;20251;-89
2023/04/13 14:35:00;;;;;;;;;;;16.80;69.60;;;;;;5008605;28;20073;-91
2023/04/13 14:37:28;;;;;;;;;;;16.80;69.50;;;;;;5006489;28;19920;-88
2023/04/13 14:39:57;;;;;;;;;;;16.80;69.20;;;;;;5006883;28;20204;-88
2023/04/13 14:42:31;;;;;;;;;;;16.80;69.00;;;;;;5008752;28;20159;-89
2023/04/13 14:44:57;;;;;;;;;;;16.80;68.90;;;;;;5007304;28;19928;-90
2023/04/13 14:47:29;;;;;;;;;;;16.80;68.90;;;;;;5009601;28;19909;-89
2023/04/13 14:50:07;;;;;;;;;;;16.80;68.70;;;;;;5009170;28;20288;-89
2023/04/13 14:52:33;;;;;;;;;;;16.80;68.60;;;;;;5010038;28;20202;-89
2023/04/13 14:55:01;;;;;;;;;;;16.70;68.50;;;;;;5027619;28;19919;-89
2023/04/13 14:57:42;;;;;;;;;;;16.70;68.60;;;;;;5011052;28;19909;-89
2023/04/13 15:00:20;;;;;;;;;;;16.70;68.80;;;;;;5019505;28;19924;-89
2023/04/13 15:02:52;;;;;;;;;;;16.70;68.90;;;;;;5015579;28;19923;-89
2023/04/13 15:05:21;;;;;;;;;;;16.70;69.00;;;;;;5009456;28;19920;-89
2023/04/13 15:07:47;;;;;;;;;;;16.60;69.10;;;;;;5010936;28;19909;-89
2023/04/13 15:10:18;;;;;;;;;;;16.70;69.20;;;;;;5010434;28;19945;-89
2023/04/13 15:12:47;;;;;;;;;;;16.60;69.30;;;;;;5011503;28;19948;-89
2023/04/13 15:15:19;;;;;;;;;;;16.60;69.50;;;;;;5010097;28;19944;-89
2023/04/13 15:17:50;;;;;;;;;;;16.60;69.60;;;;;;5010643;28;20223;-89
2023/04/13 15:20:16;;;;;;;;;;;16.60;70.30;;;;;;5008296;28;19909;-89
2023/04/13 15:22:52;;;;;;;;;;;16.70;69.70;;;;;;5007136;28;19936;-88
2023/04/13 15:25:20;;;;;;;;;;;16.70;69.60;;;;;;5006090;28;19945;-91
2023/04/13 15:27:51;;;;;;;;;;;16.70;69.40;;;;;;5025272;28;19991;-92
2023/04/13 15:30:51;;;;;;;;;;;16.70;69.10;;;;;;5025244;28;19967;-89
2023/04/13 15:33:20;;;;;;;;;;;16.70;68.90;;;;;;5006760;28;20074;-90
2023/04/13 15:35:48;;;;;;;;;;;16.80;68.90;;;;;;5008939;28;19948;-89
2023/04/13 15:38:23;;;;;;;;;;;16.80;69.10;;;;;;5008285;28;19962;-90
2023/04/13 15:40:49;;;;;;;;;;;16.70;69.20;;;;;;5009261;28;19909;-90